Time;durP1;ratioP1;P1;durP2;ratioP2;P2;SDS_P1;SDS_P2;PMS_P1;PMS_P2;Temp;Humidity;BMP_temperature;BMP_pressure;BME280_temperature;BME280_humidity;BME280_pressure;Samples;Min_cycle;Max_cycle;Signal;HPM_P1;HPM_P2
2023/06/07 00:02:23;;;;;;;4.38;2.60;;;;;;;14.68;100.00;95010.59;5075267;28;20089;-81
2023/06/07 00:04:49;;;;;;;3.33;2.40;;;;;;;14.72;100.00;95017.03;5081714;28;20024;-79
2023/06/07 00:07:15;;;;;;;3.50;2.00;;;;;;;14.60;100.00;95018.59;5081428;28;20066;-81
2023/06/07 00:09:41;;;;;;;3.78;2.20;;;;;;;14.55;100.00;95020.16;5080110;28;20021;-83
2023/06/07 00:12:07;;;;;;;4.00;2.47;;;;;;;14.42;100.00;95026.09;5082662;28;20039;-82
2023/06/07 00:14:32;;;;;;;2.97;2.67;;;;;;;14.33;100.00;95027.25;5081992;28;20441;-82
2023/06/07 00:16:58;;;;;;;2.78;2.17;;;;;;;14.24;100.00;95018.75;5080738;28;20111;-79
2023/06/07 00:19:27;;;;;;;4.60;2.33;;;;;;;14.22;100.00;95018.13;5082263;28;20110;-77
2023/06/07 00:21:53;;;;;;;3.85;2.78;;;;;;;14.30;100.00;95008.56;5080090;28;20020;-78
2023/06/07 00:24:19;;;;;;;3.42;2.13;;;;;;;14.37;100.00;95006.81;5081184;28;20847;-80
2023/06/07 00:26:44;;;;;;;2.92;2.45;;;;;;;14.31;100.00;94997.97;5079383;28;20031;-76
2023/06/07 00:29:10;;;;;;;3.70;2.60;;;;;;;14.36;100.00;95005.22;5064158;28;20028;-82
2023/06/07 00:31:36;;;;;;;6.88;2.33;;;;;;;14.11;100.00;94995.22;5081140;28;20051;-84
2023/06/07 00:34:03;;;;;;;4.00;2.33;;;;;;;14.09;100.00;94997.22;5080667;28;20024;-76
2023/06/07 00:36:29;;;;;;;3.42;2.25;;;;;;;14.29;100.00;94999.16;5062990;28;20042;-80
2023/06/07 00:38:55;;;;;;;4.03;2.65;;;;;;;14.25;100.00;94998.72;5063092;28;20409;-77
2023/06/07 00:41:20;;;;;;;3.63;2.45;;;;;;;14.32;100.00;95002.16;5080688;28;20031;-82
2023/06/07 00:43:47;;;;;;;4.88;2.60;;;;;;;14.24;100.00;94997.91;5062529;28;20015;-79
2023/06/07 00:46:14;;;;;;;3.22;2.42;;;;;;;14.34;100.00;94996.78;5082367;28;20840;-80
2023/06/07 00:48:40;;;;;;;3.47;2.25;;;;;;;14.37;100.00;94991.19;5062496;28;20501;-84
2023/06/07 00:51:05;;;;;;;6.68;2.70;;;;;;;14.32;100.00;94993.56;5080343;28;20046;-81
2023/06/07 00:53:31;;;;;;;2.90;2.42;;;;;;;14.39;100.00;94983.97;5079917;28;20101;-78
2023/06/07 00:55:57;;;;;;;4.78;2.40;;;;;;;14.36;100.00;94984.38;5063516;28;20657;-82
2023/06/07 00:58:24;;;;;;;4.47;2.20;;;;;;;14.46;100.00;94982.22;5067418;28;20139;-81
2023/06/07 01:00:49;;;;;;;2.80;2.03;;;;;;;14.45;100.00;94985.84;5063941;28;20405;-78
2023/06/07 01:03:15;;;;;;;2.60;2.40;;;;;;;14.46;100.00;94979.59;5063667;28;20034;-81
2023/06/07 01:05:41;;;;;;;3.35;2.38;;;;;;;14.54;100.00;94980.28;5079544;28;20156;-77
2023/06/07 01:08:07;;;;;;;3.15;2.38;;;;;;;14.53;100.00;94976.03;5080225;28;20052;-86
2023/06/07 01:10:33;;;;;;;4.70;2.10;;;;;;;14.48;100.00;94975.03;5079141;28;20042;-79
2023/06/07 01:13:02;;;;;;;3.45;2.60;;;;;;;14.50;100.00;94978.22;5062777;28;20517;-76
2023/06/07 01:15:27;;;;;;;5.57;2.35;;;;;;;14.50;100.00;94980.84;5081356;28;20136;-78
2023/06/07 01:17:53;;;;;;;3.08;2.78;;;;;;;14.49;100.00;94980.03;5079078;28;21168;-79
2023/06/07 01:20:24;;;;;;;4.65;2.45;;;;;;;14.50;100.00;94978.22;5080232;28;20043;-78
2023/06/07 01:22:52;;;;;;;5.00;2.47;;;;;;;14.53;100.00;94977.84;5078740;28;20898;-77
2023/06/07 01:25:18;;;;;;;2.92;2.08;;;;;;;14.59;100.00;94975.25;5080164;28;20038;-78
2023/06/07 01:27:45;;;;;;;3.85;2.30;;;;;;;14.54;100.00;94969.03;5080326;28;20020;-76
2023/06/07 01:30:12;;;;;;;4.68;1.98;;;;;;;14.49;100.00;94971.41;5062630;28;20416;-77
2023/06/07 01:32:40;;;;;;;5.15;2.67;;;;;;;14.45;100.00;94968.38;5062404;28;20412;-79
2023/06/07 01:35:06;;;;;;;3.95;2.70;;;;;;;14.53;100.00;94970.03;5062169;28;20548;-76
2023/06/07 01:37:34;;;;;;;3.97;2.33;;;;;;;14.44;100.00;94972.00;5079302;28;20052;-80
2023/06/07 01:40:01;;;;;;;5.78;2.50;;;;;;;14.60;100.00;94976.88;5078552;28;20039;-77
2023/06/07 01:42:27;;;;;;;2.90;2.10;;;;;;;14.54;100.00;94977.66;5079638;28;20028;-78
2023/06/07 01:44:53;;;;;;;3.08;2.13;;;;;;;14.68;100.00;94981.09;5061820;28;20560;-77
2023/06/07 01:47:18;;;;;;;5.68;2.15;;;;;;;14.56;100.00;94974.84;5079455;28;20392;-77
2023/06/07 01:49:44;;;;;;;4.43;2.85;;;;;;;14.47;100.00;94974.22;5079017;28;20028;-76
2023/06/07 01:52:10;;;;;;;3.75;2.33;;;;;;;14.55;100.00;94979.25;5078827;28;20342;-76
2023/06/07 01:54:36;;;;;;;3.05;2.38;;;;;;;14.51;100.00;94974.63;5079339;28;20485;-75
2023/06/07 01:57:28;;;;;;;4.45;2.35;;;;;;;14.43;100.00;94974.78;5061696;28;20031;-76
2023/06/07 02:00:07;;;;;;;3.60;2.55;;;;;;;14.53;100.00;94972.63;5073110;28;20021;-76
2023/06/07 02:02:59;;;;;;;3.10;2.53;;;;;;;14.49;100.00;94976.63;5075306;28;20052;-77
2023/06/07 02:05:34;;;;;;;3.15;2.00;;;;;;;14.59;100.00;94977.88;5078552;28;20444;-76
2023/06/07 02:08:06;;;;;;;2.67;2.00;;;;;;;14.54;100.00;94976.84;5062507;28;20062;-76
2023/06/07 02:10:32;;;;;;;4.05;2.17;;;;;;;14.42;100.00;94970.56;5078221;28;20028;-75
2023/06/07 02:12:58;;;;;;;3.25;2.00;;;;;;;14.59;100.00;94980.47;5065152;28;20020;-77
2023/06/07 02:15:24;;;;;;;4.03;2.58;;;;;;;14.39;100.00;94971.75;5078113;28;20028;-76
2023/06/07 02:17:57;;;;;;;2.85;2.20;;;;;;;14.52;100.00;94978.84;5079051;28;20462;-76
2023/06/07 02:20:27;;;;;;;4.10;1.98;;;;;;;14.42;100.00;94979.19;5079211;28;20024;-75
2023/06/07 02:22:52;;;;;;;3.60;2.10;;;;;;;14.29;100.00;94973.88;5078220;28;20036;-76
2023/06/07 02:25:18;;;;;;;3.55;2.38;;;;;;;14.35;100.00;94970.56;5079334;28;20032;-78
2023/06/07 02:27:43;;;;;;;6.20;2.20;;;;;;;14.27;100.00;94965.47;5065485;28;20028;-76
2023/06/07 02:30:10;;;;;;;3.83;2.22;;;;;;;14.45;100.00;94968.38;5077760;28;20072;-75
2023/06/07 02:32:38;;;;;;;8.10;2.22;;;;;;;14.51;100.00;94972.03;5061284;28;20039;-76
2023/06/07 02:35:07;;;;;;;4.20;2.28;;;;;;;14.44;100.00;94979.00;5080703;28;20024;-76
2023/06/07 02:37:33;;;;;;;2.28;2.00;;;;;;;14.39;100.00;94965.72;5078427;28;20031;-77
2023/06/07 02:39:58;;;;;;;2.53;1.95;;;;;;;14.42;100.00;94970.56;5079715;28;20408;-77
2023/06/07 02:42:24;;;;;;;2.95;2.30;;;;;;;14.29;100.00;94968.66;5079028;28;20024;-75
2023/06/07 02:44:49;;;;;;;4.68;2.50;;;;;;;14.29;100.00;94978.31;5061378;28;20036;-77
2023/06/07 02:47:15;;;;;;;4.00;2.15;;;;;;;14.42;100.00;94973.16;5062019;28;20799;-76
2023/06/07 02:49:41;;;;;;;2.60;2.40;;;;;;;14.46;100.00;94970.00;5066603;28;20094;-78
2023/06/07 02:52:07;;;;;;;7.18;2.55;;;;;;;14.42;100.00;94970.56;5076431;28;20036;-77
2023/06/07 02:54:34;;;;;;;8.30;2.20;;;;;;;14.53;100.00;94970.84;5079262;28;20029;-76
2023/06/07 02:57:00;;;;;;;5.57;2.35;;;;;;;14.50;100.00;94962.59;5078710;28;20131;-79
2023/06/07 02:59:26;;;;;;;3.78;2.00;;;;;;;14.56;100.00;94969.63;5057293;28;20115;-82
2023/06/07 03:01:52;;;;;;;3.55;2.10;;;;;;;14.60;100.00;94971.66;5041807;28;20871;-75
2023/06/07 03:04:19;;;;;;;3.03;2.22;;;;;;;14.64;100.00;94959.06;5075474;28;20024;-77
2023/06/07 03:06:47;;;;;;;5.65;2.42;;;;;;;14.68;100.00;94960.25;5081696;28;20024;-77
2023/06/07 03:09:14;;;;;;;6.28;2.22;;;;;;;14.70;100.00;94961.66;5084204;28;20021;-75
2023/06/07 03:11:39;;;;;;;3.03;1.83;;;;;;;14.75;100.00;94963.69;5081889;28;20054;-79
2023/06/07 03:14:05;;;;;;;3.00;2.13;;;;;;;14.75;100.00;94964.50;5083655;28;20477;-76
2023/06/07 03:16:31;;;;;;;3.65;2.03;;;;;;;14.77;100.00;94967.69;5081405;28;20020;-77
2023/06/07 03:18:56;;;;;;;2.60;2.35;;;;;;;14.84;100.00;94966.91;5045742;28;20047;-78
2023/06/07 03:21:22;;;;;;;5.28;2.42;;;;;;;14.85;100.00;94963.31;5054148;28;20039;-78
2023/06/07 03:23:47;;;;;;;2.97;2.22;;;;;;;14.88;100.00;94962.91;5064469;28;20527;-78
2023/06/07 03:26:12;;;;;;;4.68;2.10;;;;;;;14.97;100.00;94970.38;5078506;28;20059;-85
2023/06/07 03:28:38;;;;;;;4.40;2.15;;;;;;;15.01;100.00;94962.94;5080817;28;20024;-80
2023/06/07 03:31:03;;;;;;;3.28;1.90;;;;;;;15.67;97.91;94969.88;5082326;28;20039;-85
2023/06/07 03:33:29;;;;;;;6.13;2.33;;;;;;;16.01;94.68;94966.25;5060591;28;20036;-88
2023/06/07 03:35:56;;;;;;;4.13;2.03;;;;;;;16.09;94.03;94952.94;5072514;28;20024;-83
2023/06/07 03:38:21;;;;;;;4.97;2.30;;;;;;;15.60;97.39;94965.66;5065341;28;20035;-84
2023/06/07 03:40:47;;;;;;;3.95;2.20;;;;;;;15.43;99.61;94967.03;5082699;28;20020;-87
2023/06/07 03:43:12;;;;;;;3.35;2.50;;;;;;;15.13;100.00;94969.19;5083759;28;20055;-89
2023/06/07 03:45:38;;;;;;;2.60;2.15;;;;;;;15.22;100.00;94968.81;5081779;28;20396;-86
2023/06/07 03:48:03;;;;;;;1.98;1.80;;;;;;;15.15;100.00;94970.63;5072056;28;20039;-89
2023/06/07 03:50:29;;;;;;;9.35;2.58;;;;;;;15.21;100.00;94969.03;5078531;28;20967;-85
2023/06/07 03:52:55;;;;;;;4.28;2.10;;;;;;;14.90;100.00;94951.28;5081980;28;20039;-87
2023/06/07 03:55:20;;;;;;;4.07;1.98;;;;;;;15.07;100.00;94962.97;5062683;28;20068;-82
2023/06/07 03:57:47;;;;;;;7.40;2.40;;;;;;;15.16;100.00;94955.75;5081045;28;20545;-84
2023/06/07 04:00:15;;;;;;;7.22;2.10;;;;;;;15.04;100.00;94955.53;5050932;28;20830;-83
2023/06/07 04:02:41;;;;;;;3.47;2.20;;;;;;;15.29;100.00;94950.53;5073430;28;20085;-84
2023/06/07 04:05:07;;;;;;;4.93;1.80;;;;;;;15.37;100.00;94957.41;5081851;28;20028;-87
2023/06/07 04:07:32;;;;;;;3.85;2.20;;;;;;;15.53;100.00;94949.19;5080039;28;20020;-84
2023/06/07 04:09:58;;;;;;;3.00;2.55;;;;;;;15.84;100.00;94949.38;5081509;28;20047;-83
2023/06/07 04:12:23;;;;;;;6.80;2.30;;;;;;;16.49;100.00;94948.41;5080409;28;20028;-81
2023/06/07 04:14:49;;;;;;;3.35;2.03;;;;;;;17.05;93.39;94943.31;5080717;28;20036;-82
2023/06/07 04:17:14;;;;;;;2.63;1.95;;;;;;;18.00;89.91;94942.22;5064086;28;20073;-82
2023/06/07 04:19:40;;;;;;;6.03;1.77;;;;;;;18.94;80.07;94934.69;5080839;28;20032;-85
2023/06/07 04:22:05;;;;;;;1.95;1.70;;;;;;;19.64;77.84;94940.19;5064087;28;20058;-84
2023/06/07 04:24:31;;;;;;;2.55;2.00;;;;;;;20.13;73.38;94938.13;5079422;28;20028;-86
2023/06/07 04:26:58;;;;;;;3.28;2.00;;;;;;;20.36;70.26;94941.56;5064690;28;20027;-87
2023/06/07 04:29:27;;;;;;;3.15;1.67;;;;;;;20.66;69.05;94936.13;5069802;28;20490;-87
2023/06/07 04:31:56;;;;;;;2.80;1.60;;;;;;;21.17;68.39;94939.75;5052668;28;20048;-84
2023/06/07 04:34:25;;;;;;;3.55;1.80;;;;;;;22.28;64.19;94936.28;5081079;28;20032;-85
2023/06/07 04:36:52;;;;;;;2.22;1.90;;;;;;;22.76;60.75;94922.41;5080867;28;20056;-82
2023/06/07 04:39:18;;;;;;;2.05;1.63;;;;;;;22.51;60.21;94939.47;5060429;28;20029;-82
2023/06/07 04:41:45;;;;;;;3.75;2.00;;;;;;;22.78;59.03;94942.22;5076954;28;20812;-82
2023/06/07 04:44:11;;;;;;;5.45;1.85;;;;;;;22.58;57.05;94950.66;5080713;28;20107;-80
2023/06/07 04:46:39;;;;;;;3.20;1.90;;;;;;;23.47;55.72;94942.47;5045324;28;20029;-81
2023/06/07 04:49:05;;;;;;;2.83;1.70;;;;;;;24.28;51.91;94943.88;5064035;28;20036;-84
2023/06/07 04:51:30;;;;;;;4.70;1.92;;;;;;;23.84;52.19;94938.00;5080047;28;20521;-77
2023/06/07 04:53:58;;;;;;;2.10;1.90;;;;;;;23.38;53.42;94933.34;5062889;28;20024;-81
2023/06/07 04:56:26;;;;;;;2.67;1.88;;;;;;;24.35;51.32;94930.41;5080728;28;20926;-79
2023/06/07 04:58:52;;;;;;;;;;;;;;;24.76;50.99;94936.69;5079925;28;20063;-82
2023/06/07 05:01:18;;;;;;;4.32;1.80;;;;;;;25.15;48.40;94936.06;5066446;28;19977;-84
2023/06/07 05:03:43;;;;;;;2.17;1.83;;;;;;;23.99;50.83;94943.41;5062264;28;20454;-79
2023/06/07 05:06:09;;;;;;;2.65;1.70;;;;;;;24.89;50.21;94933.59;5063532;28;20035;-83
2023/06/07 05:08:34;;;;;;;2.30;1.60;;;;;;;23.92;51.14;94939.41;5081624;28;20026;-75
2023/06/07 05:10:59;;;;;;;4.47;1.95;;;;;;;24.45;50.14;94938.41;5063147;28;20032;-78
2023/06/07 05:13:25;;;;;;;2.28;1.85;;;;;;;25.81;47.84;94932.75;5080324;28;20089;-83
2023/06/07 05:15:50;;;;;;;4.65;2.28;;;;;;;26.89;45.98;94941.88;5079260;28;20027;-80
2023/06/07 05:18:20;;;;;;;2.05;1.85;;;;;;;27.38;43.42;94936.56;5062965;28;20482;-82
2023/06/07 05:20:49;;;;;;;2.83;1.60;;;;;;;28.40;41.68;94936.56;5078680;28;20357;-85
2023/06/07 05:23:16;;;;;;;4.97;1.85;;;;;;;28.13;42.60;94940.56;5080384;28;20614;-81
2023/06/07 05:25:45;;;;;;;3.60;1.90;;;;;;;28.01;43.72;94937.44;5064748;28;20025;-78
2023/06/07 05:28:11;;;;;;;2.53;2.30;;;;;;;28.58;42.40;94947.28;5066138;28;20052;-83
2023/06/07 05:30:37;;;;;;;3.45;1.70;;;;;;;28.93;41.72;94926.69;5078967;28;20575;-79
2023/06/07 05:33:03;;;;;;;2.00;1.40;;;;;;;28.32;42.37;94929.19;5080592;28;20031;-78
2023/06/07 05:35:28;;;;;;;3.95;1.98;;;;;;;27.18;44.10;94928.69;5079514;28;20008;-78
2023/06/07 05:37:54;;;;;;;2.72;1.80;;;;;;;27.63;44.11;94924.97;5080020;28;20035;-76
2023/06/07 05:40:20;;;;;;;2.10;1.90;;;;;;;28.43;43.69;94926.13;5079769;28;20088;-78
2023/06/07 05:42:45;;;;;;;3.33;1.85;;;;;;;27.41;45.17;94928.03;5080123;28;20510;-76
2023/06/07 05:45:11;;;;;;;2.22;1.60;;;;;;;27.06;45.05;94928.22;5079659;28;20900;-76
2023/06/07 05:47:37;;;;;;;3.58;1.77;;;;;;;25.45;48.17;94924.75;5074409;28;20161;-76
2023/06/07 05:50:04;;;;;;;2.65;1.75;;;;;;;25.54;49.61;94928.47;5062680;28;20039;-76
2023/06/07 05:52:29;;;;;;;1.98;1.65;;;;;;;24.47;52.17;94918.56;5076710;28;20087;-77
2023/06/07 05:54:57;;;;;;;3.65;2.10;;;;;;;23.97;53.92;94921.69;5058301;28;20447;-77
2023/06/07 05:57:23;;;;;;;3.20;2.00;;;;;;;23.16;55.58;94922.81;5057407;28;20398;-76
2023/06/07 05:59:48;;;;;;;5.03;2.15;;;;;;;23.13;55.41;94923.31;5070091;28;20044;-76
2023/06/07 06:02:16;;;;;;;2.63;2.33;;;;;;;22.94;54.91;94929.97;5053435;28;20538;-76
2023/06/07 06:04:43;;;;;;;2.10;1.70;;;;;;;24.97;52.39;94923.31;5060009;28;20409;-76
2023/06/07 06:07:09;;;;;;;4.55;2.30;;;;;;;26.16;48.62;94920.28;5077364;28;20084;-77
2023/06/07 06:09:34;;;;;;;6.65;1.92;;;;;;;24.41;50.11;94929.38;5077068;28;20451;-75
2023/06/07 06:12:00;;;;;;;5.20;1.90;;;;;;;24.74;48.91;94921.06;5078290;28;20028;-76
2023/06/07 06:14:25;;;;;;;2.80;1.70;;;;;;;25.75;48.56;94917.88;5060461;28;20028;-76
2023/06/07 06:16:51;;;;;;;3.88;1.90;;;;;;;24.06;50.97;94919.34;5077016;28;20019;-76
2023/06/07 06:19:16;;;;;;;2.00;1.83;;;;;;;25.09;49.52;94915.91;5077114;28;20036;-76
2023/06/07 06:21:42;;;;;;;3.78;1.90;;;;;;;25.24;50.64;94917.78;5076436;28;20023;-77
2023/06/07 06:24:08;;;;;;;2.47;1.95;;;;;;;25.22;50.81;94917.25;5078894;28;20490;-76
2023/06/07 06:26:33;;;;;;;2.42;1.70;;;;;;;24.35;51.43;94925.91;5078135;28;20016;-76
2023/06/07 06:28:58;;;;;;;3.35;2.00;;;;;;;22.84;54.52;94925.38;5077389;28;20101;-76
2023/06/07 06:31:27;;;;;;;5.32;1.85;;;;;;;23.78;55.36;94923.16;5076991;28;20035;-76
2023/06/07 06:33:52;;;;;;;3.42;1.85;;;;;;;23.84;54.18;94924.78;5078737;28;20027;-76
2023/06/07 06:36:18;;;;;;;4.22;1.83;;;;;;;24.60;55.96;94926.03;5081076;28;20954;-76
2023/06/07 06:38:43;;;;;;;5.20;1.98;;;;;;;24.45;56.44;94930.47;5080060;28;20024;-76
2023/06/07 06:41:10;;;;;;;3.72;1.90;;;;;;;24.95;50.72;94924.59;5064237;28;20504;-77
2023/06/07 06:43:36;;;;;;;6.50;2.10;;;;;;;24.83;52.19;94926.69;5080190;28;20047;-76
2023/06/07 06:46:01;;;;;;;3.97;1.95;;;;;;;24.45;52.07;94917.22;5081133;28;20056;-77
2023/06/07 06:48:26;;;;;;;3.15;2.42;;;;;;;24.16;56.23;94922.09;5063391;28;20058;-77
2023/06/07 06:50:52;;;;;;;4.13;1.77;;;;;;;23.21;56.64;94925.53;5063577;28;20048;-76
2023/06/07 06:53:17;;;;;;;3.88;2.20;;;;;;;22.79;58.07;94927.97;5080500;28;20793;-76
2023/06/07 06:55:43;;;;;;;3.25;1.65;;;;;;;22.68;61.55;94928.91;5080126;28;20376;-76
2023/06/07 06:58:08;;;;;;;4.07;2.17;;;;;;;22.31;62.52;94933.97;5080860;28;20809;-78
2023/06/07 07:00:35;;;;;;;3.08;1.85;;;;;;;23.03;63.34;94923.22;5067662;28;20040;-76
2023/06/07 07:03:02;;;;;;;3.83;1.95;;;;;;;22.73;64.39;94926.34;5080206;28;20039;-77
2023/06/07 07:05:27;;;;;;;2.53;1.80;;;;;;;22.85;63.20;94931.47;5079787;28;20035;-77
2023/06/07 07:07:53;;;;;;;7.88;1.95;;;;;;;23.58;61.37;94929.06;5080645;28;20016;-76
2023/06/07 07:10:18;;;;;;;5.07;1.83;;;;;;;24.01;57.24;94922.78;5063270;28;20481;-77
2023/06/07 07:12:44;;;;;;;2.33;1.90;;;;;;;23.86;59.37;94925.31;5079708;28;20059;-77
2023/06/07 07:15:09;;;;;;;4.22;2.22;;;;;;;23.92;57.49;94926.16;5063633;28;20035;-77
2023/06/07 07:17:43;;;;;;;2.08;1.88;;;;;;;23.80;56.39;94922.88;5080644;28;20473;-76
2023/06/07 07:20:10;;;;;;;3.88;2.10;;;;;;;24.28;57.40;94921.91;5063674;28;20039;-77
2023/06/07 07:22:36;;;;;;;2.45;1.85;;;;;;;24.09;57.11;94924.16;5080628;28;20031;-77
2023/06/07 07:25:01;;;;;;;2.33;2.13;;;;;;;23.19;58.90;94922.31;5081622;28;20027;-77
2023/06/07 07:27:28;;;;;;;2.85;2.50;;;;;;;24.09;53.47;94926.78;5079930;28;20827;-78
2023/06/07 07:29:53;;;;;;;3.33;1.77;;;;;;;24.81;54.84;94928.78;5080994;28;20043;-78
2023/06/07 07:32:19;;;;;;;2.13;1.90;;;;;;;25.73;52.64;94930.59;5080029;28;20036;-77
2023/06/07 07:34:44;;;;;;;3.05;1.70;;;;;;;25.16;54.29;94928.94;5078948;28;20036;-77
2023/06/07 07:37:10;;;;;;;2.55;1.75;;;;;;;24.82;54.45;94915.28;5080454;28;20028;-77
2023/06/07 07:39:36;;;;;;;4.25;2.33;;;;;;;24.90;58.29;94917.44;5078625;28;20562;-77
2023/06/07 07:42:03;;;;;;;3.25;1.90;;;;;;;25.09;55.84;94913.25;5081436;28;20023;-77
2023/06/07 07:44:28;;;;;;;2.72;1.95;;;;;;;24.81;55.66;94908.38;5062374;28;20066;-77
2023/06/07 07:46:54;;;;;;;3.17;2.03;;;;;;;24.58;58.45;94908.81;5079697;28;20438;-77
2023/06/07 07:49:19;;;;;;;3.75;2.00;;;;;;;24.32;55.57;94913.19;5079318;28;20036;-76
2023/06/07 07:51:45;;;;;;;2.97;2.05;;;;;;;24.63;57.70;94914.94;5079022;28;20080;-77
2023/06/07 07:54:10;;;;;;;3.15;2.10;;;;;;;23.77;60.14;94913.59;5081274;28;20413;-77
2023/06/07 07:56:35;;;;;;;5.38;2.40;;;;;;;24.64;54.99;94913.09;5061651;28;20409;-80
2023/06/07 07:59:01;;;;;;;5.63;2.00;;;;;;;25.15;53.53;94904.25;5079644;28;20425;-78
2023/06/07 08:01:27;;;;;;;3.25;2.38;;;;;;;25.15;57.04;94904.25;5064741;28;20572;-82
2023/06/07 08:03:52;;;;;;;2.22;2.13;;;;;;;25.64;54.25;94907.25;5062714;28;20024;-77
2023/06/07 08:06:18;;;;;;;3.72;2.20;;;;;;;25.50;57.02;94906.19;5078718;28;20100;-77
2023/06/07 08:08:46;;;;;;;4.20;1.77;;;;;;;25.71;56.63;94906.19;5062036;28;20350;-78
2023/06/07 08:11:12;;;;;;;2.42;2.20;;;;;;;25.14;54.62;94905.31;5079244;28;20039;-79
2023/06/07 08:13:37;;;;;;;4.82;2.47;;;;;;;25.58;55.73;94905.69;5079701;28;20896;-77
2023/06/07 08:16:03;;;;;;;2.95;2.60;;;;;;;25.24;55.71;94896.56;5080709;28;20093;-77
2023/06/07 08:18:28;;;;;;;3.58;1.80;;;;;;;24.64;57.19;94908.59;5074807;28;20072;-76
2023/06/07 08:20:53;;;;;;;3.17;2.10;;;;;;;24.85;59.76;94906.03;5061290;28;20111;-79
2023/06/07 08:23:19;;;;;;;6.20;2.15;;;;;;;24.97;59.26;94909.25;5051557;28;20096;-78
2023/06/07 08:25:44;;;;;;;3.47;2.40;;;;;;;25.51;58.40;94909.63;5058483;28;20036;-77
2023/06/07 08:28:10;;;;;;;2.95;2.38;;;;;;;25.89;59.04;94903.00;5065968;28;20039;-78
2023/06/07 08:30:35;;;;;;;5.72;2.13;;;;;;;25.53;58.42;94907.50;5073528;28;20119;-79
2023/06/07 08:33:01;;;;;;;5.32;2.30;;;;;;;25.24;55.47;94901.88;5078391;28;20439;-78
2023/06/07 08:35:26;;;;;;;3.40;2.08;;;;;;;25.32;57.56;94904.03;5052917;28;20027;-76
2023/06/07 08:37:51;;;;;;;5.38;2.15;;;;;;;25.90;57.16;94909.91;5050256;28;20031;-79
2023/06/07 08:40:18;;;;;;;5.35;2.50;;;;;;;25.72;56.38;94900.59;5059641;28;20025;-80
2023/06/07 08:42:43;;;;;;;3.00;2.38;;;;;;;25.14;54.52;94900.00;5047460;28;20017;-78
2023/06/07 08:45:10;;;;;;;2.40;2.20;;;;;;;25.79;58.21;94901.16;5055611;28;20130;-76
2023/06/07 08:47:36;;;;;;;3.60;2.40;;;;;;;25.73;57.54;94910.19;5048812;28;20556;-77
2023/06/07 08:50:02;;;;;;;2.88;2.00;;;;;;;25.21;54.18;94904.25;5039180;28;20481;-80
2023/06/07 08:52:30;;;;;;;2.97;2.60;;;;;;;25.48;57.04;94899.53;5050213;28;20028;-79
2023/06/07 08:54:59;;;;;;;3.85;2.10;;;;;;;25.30;55.95;94906.13;5042609;28;20020;-77
2023/06/07 08:57:25;;;;;;;2.83;2.50;;;;;;;24.57;61.99;94901.91;5038548;28;20103;-80
2023/06/07 08:59:51;;;;;;;2.92;2.40;;;;;;;24.56;56.43;94901.13;5045489;28;20429;-80
2023/06/07 09:02:19;;;;;;;3.58;2.30;;;;;;;24.50;57.99;94904.00;5038827;28;20041;-76
2023/06/07 09:04:45;;;;;;;2.80;2.47;;;;;;;24.75;59.53;94903.31;5062248;28;20028;-81
2023/06/07 09:07:11;;;;;;;5.90;2.40;;;;;;;24.78;61.53;94908.09;5080296;28;20027;-78
2023/06/07 09:09:36;;;;;;;3.40;2.20;;;;;;;24.72;60.22;94903.84;5079469;28;20016;-78
2023/06/07 09:12:02;;;;;;;3.83;2.35;;;;;;;24.40;61.54;94901.31;5080007;28;20358;-77
2023/06/07 09:14:29;;;;;;;4.18;2.50;;;;;;;24.85;60.23;94904.16;5079353;28;20045;-78
2023/06/07 09:16:56;;;;;;;6.00;2.53;;;;;;;24.99;60.57;94899.97;5080212;28;20109;-77
2023/06/07 09:19:49;;;;;;;5.85;2.42;;;;;;;24.91;64.34;94902.34;5079057;28;20031;-78
2023/06/07 09:22:17;;;;;;;2.95;2.60;;;;;;;23.89;63.07;94906.28;5077993;28;20177;-77
2023/06/07 09:24:42;;;;;;;3.17;2.33;;;;;;;24.20;62.96;94907.31;5066113;28;20028;-77
2023/06/07 09:27:08;;;;;;;2.78;2.22;;;;;;;23.97;63.16;94905.00;5055458;28;20067;-77
2023/06/07 09:29:41;;;;;;;2.60;2.40;;;;;;;23.89;63.27;94900.22;5078091;28;20020;-79
2023/06/07 09:32:18;;;;;;;3.53;2.50;;;;;;;24.71;62.40;94895.09;5078741;28;20028;-81
2023/06/07 09:34:44;;;;;;;3.33;2.38;;;;;;;23.69;64.78;94900.84;5062535;28;20024;-77
2023/06/07 09:37:09;;;;;;;3.80;2.70;;;;;;;24.43;62.18;94896.31;5080831;28;20032;-84
2023/06/07 09:39:37;;;;;;;4.25;2.70;;;;;;;23.92;62.12;94910.28;5062671;28;20055;-87
2023/06/07 09:42:13;;;;;;;5.72;2.58;;;;;;;24.32;66.06;94896.50;5069424;28;20068;-78
2023/06/07 09:44:39;;;;;;;3.75;2.65;;;;;;;24.23;63.03;94904.16;5048881;28;20501;-78
2023/06/07 09:47:04;;;;;;;3.50;2.60;;;;;;;24.58;64.20;94899.03;5051182;28;20128;-78
2023/06/07 09:49:34;;;;;;;3.05;2.75;;;;;;;24.43;61.93;94892.88;5041994;28;20029;-77
2023/06/07 09:52:01;;;;;;;4.15;3.25;;;;;;;23.95;64.31;94893.91;5055264;28;20201;-78
2023/06/07 09:54:41;;;;;;;3.60;2.97;;;;;;;23.93;64.25;94896.78;5055124;28;20501;-84
2023/06/07 09:57:08;;;;;;;3.70;2.85;;;;;;;24.12;64.46;94886.59;5044324;28;20758;-77
2023/06/07 09:59:35;;;;;;;3.38;3.08;;;;;;;23.87;64.45;94891.72;5047154;28;20021;-79
2023/06/07 10:02:01;;;;;;;4.18;2.80;;;;;;;24.27;63.92;94897.28;5054316;28;20565;-78
2023/06/07 10:04:31;;;;;;;5.65;3.25;;;;;;;24.10;63.48;94894.78;5039462;28;20166;-79
2023/06/07 10:07:00;;;;;;;29.10;19.65;;;;;;;23.82;64.65;94896.97;5043615;28;20484;-80
2023/06/07 10:09:26;;;;;;;6.13;5.60;;;;;;;24.41;62.66;94887.81;5075418;28;20028;-79
2023/06/07 10:11:54;;;;;;;8.93;8.02;;;;;;;24.42;63.94;94889.41;5065174;28;20085;-78
2023/06/07 10:14:26;;;;;;;11.60;8.13;;;;;;;24.54;64.81;94887.34;5083059;28;20154;-82
2023/06/07 10:16:55;;;;;;;79.32;54.60;;;;;;;24.08;67.08;94888.16;5083572;28;20028;-74
2023/06/07 10:19:31;;;;;;;;;;;;;;;23.68;66.06;94885.22;5082939;28;20080;-78
2023/06/07 10:21:57;;;;;;;15.13;10.10;;;;;;;23.78;67.67;94883.47;5066971;28;20010;-77
2023/06/07 10:24:33;;;;;;;8.20;6.65;;;;;;;23.97;65.91;94886.50;5082538;28;20119;-78
2023/06/07 10:27:12;;;;;;;6.03;4.45;;;;;;;24.41;66.97;94882.50;5069867;28;20023;-80
2023/06/07 10:29:56;;;;;;;10.07;9.18;;;;;;;24.13;65.63;94878.41;5083104;28;20456;-75
2023/06/07 10:32:25;;;;;;;13.18;11.50;;;;;;;24.65;64.74;94881.03;5083406;28;20032;-79
2023/06/07 10:34:53;;;;;;;7.65;6.60;;;;;;;24.39;67.12;94879.34;5083072;28;20094;-78
2023/06/07 10:37:19;;;;;;;8.25;6.55;;;;;;;24.44;67.13;94873.25;5082055;28;20405;-78
2023/06/07 10:39:45;;;;;;;4.03;2.90;;;;;;;24.26;65.62;94874.50;5081803;28;20077;-80
2023/06/07 10:42:12;;;;;;;60.60;39.08;;;;;;;24.79;65.35;94877.91;5041959;28;20105;-80
2023/06/07 10:44:37;;;;;;;9.38;6.65;;;;;;;24.47;63.73;94867.44;5053690;28;20131;-83
2023/06/07 10:47:21;;;;;;;8.70;6.75;;;;;;;24.79;65.58;94872.59;5078997;28;20138;-79
2023/06/07 10:49:47;;;;;;;8.02;7.10;;;;;;;24.46;66.84;94879.91;5068654;28;20024;-85
2023/06/07 10:52:15;;;;;;;5.70;2.85;;;;;;;24.36;65.92;94871.91;5082998;28;20024;-79
2023/06/07 10:54:41;;;;;;;43.33;29.92;;;;;;;24.29;66.71;94870.53;5080167;28;20028;-78
2023/06/07 10:57:07;;;;;;;11.07;9.40;;;;;;;24.34;67.31;94867.94;5062459;28;20024;-78
2023/06/07 10:59:33;;;;;;;8.80;7.22;;;;;;;24.54;67.77;94868.00;5077810;28;20032;-80
2023/06/07 11:02:28;;;;;;;8.95;6.82;;;;;;;24.91;69.00;94862.59;5062501;28;20041;-78
2023/06/07 11:04:57;;;;;;;9.80;4.68;;;;;;;24.72;68.11;94870.19;5043698;28;20099;-78
2023/06/07 11:07:28;;;;;;;10.15;5.88;;;;;;;24.39;67.04;94874.03;5053553;28;20036;-87
2023/06/07 11:10:17;;;;;;;9.02;7.40;;;;;;;24.46;67.71;94873.81;5042163;28;20115;-78
2023/06/07 11:12:45;;;;;;;18.33;13.93;;;;;;;24.76;68.99;94867.81;5051231;28;20045;-77
2023/06/07 11:15:16;;;;;;;8.57;5.47;;;;;;;24.54;67.26;94865.34;5044257;28;20039;-77
2023/06/07 11:17:53;;;;;;;6.13;5.53;;;;;;;24.65;64.92;94861.69;5043532;28;20138;-77
2023/06/07 11:20:37;;;;;;;4.50;3.80;;;;;;;24.50;67.35;94859.78;5077912;28;20477;-79
2023/06/07 11:23:21;;;;;;;21.88;16.23;;;;;;;24.81;68.10;94849.28;5082026;28;20047;-79
2023/06/07 11:26:09;;;;;;;14.70;10.23;;;;;;;24.55;70.98;94845.75;5083679;28;20570;-79
2023/06/07 11:28:39;;;;;;;22.10;18.37;;;;;;;24.67;67.55;94849.78;5064182;28;20031;-78
2023/06/07 11:31:10;;;;;;;54.17;44.42;;;;;;;24.64;67.58;94844.19;5082237;28;20062;-76